Time;durP1;ratioP1;P1;durP2;ratioP2;P2;SDS_P1;SDS_P2;PMS_P1;PMS_P2;Temp;Humidity;BMP_temperature;BMP_pressure;BME280_temperature;BME280_humidity;BME280_pressure;Samples;Min_cycle;Max_cycle;Signal;HPM_P1;HPM_P2
2023/10/03 00:00:31;;;;;;;28.35;14.85;;;22.80;99.90;;;;;;5093326;28;20254;-72
2023/10/03 00:02:58;;;;;;;24.30;14.30;;;22.80;99.90;;;;;;5094650;28;20168;-72
2023/10/03 00:05:30;;;;;;;27.58;14.38;;;22.80;99.90;;;;;;5096711;28;20164;-72
2023/10/03 00:07:56;;;;;;;31.23;14.30;;;22.80;99.90;;;;;;5096902;28;20168;-72
2023/10/03 00:10:23;;;;;;;27.05;14.70;;;22.80;99.90;;;;;;5096690;28;20203;-72
2023/10/03 00:12:51;;;;;;;23.50;13.15;;;22.80;99.90;;;;;;5096404;28;20203;-71
2023/10/03 00:15:18;;;;;;;24.40;13.27;;;22.90;99.90;;;;;;5096774;28;20612;-72
2023/10/03 00:17:47;;;;;;;22.60;12.65;;;22.90;99.90;;;;;;5096573;28;20183;-72
2023/10/03 00:20:16;;;;;;;20.40;12.57;;;23.00;99.90;;;;;;5096422;28;20195;-72
2023/10/03 00:22:42;;;;;;;21.05;12.48;;;23.10;99.90;;;;;;5096293;28;20272;-72
2023/10/03 00:25:11;;;;;;;21.05;12.35;;;23.10;99.90;;;;;;5095124;28;20172;-71
2023/10/03 00:27:37;;;;;;;23.02;13.40;;;23.10;99.90;;;;;;5096570;28;20180;-72
2023/10/03 00:30:06;;;;;;;23.52;12.50;;;23.20;99.90;;;;;;5096555;28;20221;-72
2023/10/03 00:32:31;;;;;;;23.27;12.77;;;23.30;99.90;;;;;;5096427;28;20225;-71
2023/10/03 00:34:57;;;;;;;21.63;11.80;;;23.30;99.90;;;;;;5096095;28;20172;-72
2023/10/03 00:37:23;;;;;;;20.02;12.38;;;23.30;99.90;;;;;;5096278;28;20172;-71
2023/10/03 00:39:49;;;;;;;21.05;12.27;;;23.30;99.90;;;;;;5096339;28;20172;-72
2023/10/03 00:42:15;;;;;;;22.23;11.75;;;23.40;99.90;;;;;;5096165;28;20646;-71
2023/10/03 00:44:41;;;;;;;19.17;11.27;;;23.40;99.90;;;;;;5096406;28;20172;-72
2023/10/03 00:47:07;;;;;;;24.10;12.15;;;23.30;99.90;;;;;;5096372;28;20635;-71
2023/10/03 00:49:35;;;;;;;21.17;11.32;;;23.40;99.90;;;;;;5095744;28;20244;-72
2023/10/03 00:52:05;;;;;;;18.35;10.93;;;23.40;99.90;;;;;;5095922;28;20207;-72
2023/10/03 00:54:33;;;;;;;17.13;11.60;;;23.40;99.90;;;;;;5095684;28;20172;-72
2023/10/03 00:56:59;;;;;;;21.08;11.20;;;23.40;99.90;;;;;;5096112;28;20176;-73
2023/10/03 00:59:25;;;;;;;18.42;10.60;;;23.40;99.90;;;;;;5095706;28;20175;-72
2023/10/03 01:01:54;;;;;;;18.15;10.95;;;23.40;99.90;;;;;;5095910;28;20180;-72
2023/10/03 01:04:20;;;;;;;19.60;10.73;;;23.40;99.90;;;;;;5095653;28;20199;-71
2023/10/03 01:06:49;;;;;;;22.55;10.73;;;23.40;99.90;;;;;;5095779;28;20192;-73
2023/10/03 01:09:20;;;;;;;19.90;11.20;;;23.40;99.90;;;;;;5095575;28;20199;-71
2023/10/03 01:11:48;;;;;;;18.58;10.88;;;23.40;99.90;;;;;;5095472;28;20213;-72
2023/10/03 01:14:15;;;;;;;19.75;10.25;;;23.40;99.90;;;;;;5093817;28;20256;-72
2023/10/03 01:16:41;;;;;;;16.42;10.68;;;23.40;99.90;;;;;;5095610;28;20176;-72
2023/10/03 01:19:12;;;;;;;17.48;10.43;;;23.40;99.90;;;;;;5095191;28;20225;-72
2023/10/03 01:21:40;;;;;;;16.30;10.82;;;23.30;99.90;;;;;;5095260;28;20212;-72
2023/10/03 01:24:07;;;;;;;21.23;11.25;;;23.40;99.90;;;;;;5095419;28;20586;-72
2023/10/03 01:26:32;;;;;;;21.42;10.50;;;23.30;99.90;;;;;;5095392;28;20183;-72
2023/10/03 01:28:59;;;;;;;17.90;10.10;;;23.30;99.90;;;;;;5095382;28;20176;-72
2023/10/03 01:31:24;;;;;;;20.15;11.57;;;23.30;99.90;;;;;;5095215;28;20212;-72
2023/10/03 01:33:50;;;;;;;18.08;10.55;;;23.30;99.90;;;;;;5095068;28;20168;-72
2023/10/03 01:36:19;;;;;;;18.67;10.73;;;23.30;99.90;;;;;;5094984;28;20701;-72
2023/10/03 01:38:47;;;;;;;17.05;10.13;;;23.20;99.90;;;;;;5095199;28;20180;-72
2023/10/03 01:41:13;;;;;;;18.98;11.30;;;23.20;99.90;;;;;;5093773;28;20528;-72
2023/10/03 01:43:43;;;;;;;19.98;11.48;;;23.10;99.90;;;;;;5095240;28;20175;-72
2023/10/03 01:46:09;;;;;;;19.08;10.85;;;23.00;99.90;;;;;;5095204;28;20172;-72
2023/10/03 01:48:36;;;;;;;18.65;10.90;;;23.10;99.90;;;;;;5094574;28;20170;-72
2023/10/03 01:51:02;;;;;;;17.95;11.18;;;23.00;99.90;;;;;;5094721;28;20659;-72
2023/10/03 01:53:29;;;;;;;18.83;10.85;;;22.90;99.90;;;;;;5094940;28;20180;-72
2023/10/03 01:55:57;;;;;;;22.50;11.20;;;22.90;99.90;;;;;;5094826;28;20536;-71
2023/10/03 01:58:24;;;;;;;20.85;11.10;;;22.80;99.90;;;;;;5094608;28;20176;-72
2023/10/03 02:00:51;;;;;;;19.42;11.52;;;22.80;99.90;;;;;;5094816;28;20164;-71
2023/10/03 02:03:18;;;;;;;18.40;10.80;;;22.70;99.90;;;;;;5094672;28;20171;-70
2023/10/03 02:05:45;;;;;;;19.95;11.77;;;22.60;99.90;;;;;;5093480;28;20168;-71
2023/10/03 02:08:17;;;;;;;21.90;11.45;;;22.60;99.90;;;;;;5094475;28;20168;-71
2023/10/03 02:10:47;;;;;;;20.98;11.25;;;22.50;99.90;;;;;;5094418;28;20639;-71
2023/10/03 02:13:17;;;;;;;22.33;11.60;;;22.40;99.90;;;;;;5094567;28;20180;-72
2023/10/03 02:15:47;;;;;;;18.42;11.05;;;22.30;99.90;;;;;;5094164;28;20190;-72
2023/10/03 02:18:14;;;;;;;20.65;11.80;;;22.20;99.90;;;;;;5094399;28;20168;-71
2023/10/03 02:20:51;;;;;;;19.50;10.98;;;22.20;99.90;;;;;;5094142;28;20168;-71
2023/10/03 02:23:26;;;;;;;18.77;10.52;;;22.10;99.90;;;;;;5094520;28;20198;-72
2023/10/03 02:26:06;;;;;;;19.20;10.60;;;22.00;99.90;;;;;;5093606;28;20634;-71
2023/10/03 02:28:32;;;;;;;20.05;10.73;;;21.90;99.90;;;;;;5094168;28;20171;-71
2023/10/03 02:30:59;;;;;;;20.15;9.95;;;21.90;99.90;;;;;;5093726;28;20655;-72
2023/10/03 02:33:26;;;;;;;16.80;10.63;;;21.90;99.90;;;;;;5093995;28;20297;-71
2023/10/03 02:35:52;;;;;;;16.33;9.82;;;21.80;99.90;;;;;;5094177;28;20175;-72
2023/10/03 02:38:24;;;;;;;20.45;9.80;;;21.80;99.90;;;;;;5093872;28;20172;-71
2023/10/03 02:41:00;;;;;;;14.55;9.40;;;21.80;99.90;;;;;;5093746;28;20176;-72
2023/10/03 02:43:36;;;;;;;19.67;10.45;;;21.70;99.90;;;;;;5093949;28;20530;-71
2023/10/03 02:46:11;;;;;;;17.30;9.13;;;21.60;99.90;;;;;;5093669;28;20160;-71
2023/10/03 02:48:37;;;;;;;14.82;9.15;;;21.60;99.90;;;;;;5093967;28;20195;-72
2023/10/03 02:51:02;;;;;;;16.42;8.98;;;21.50;99.90;;;;;;5092385;28;20276;-72
2023/10/03 02:53:29;;;;;;;17.25;9.20;;;21.40;99.90;;;;;;5093761;28;20262;-72
2023/10/03 02:55:54;;;;;;;17.52;8.85;;;21.40;99.90;;;;;;5093704;28;20168;-71
2023/10/03 02:58:20;;;;;;;14.00;8.23;;;21.30;99.90;;;;;;5093579;28;20577;-72
2023/10/03 03:00:54;;;;;;;16.45;8.55;;;21.20;99.90;;;;;;5091985;28;20265;-72
2023/10/03 03:03:20;;;;;;;14.30;8.32;;;21.20;99.90;;;;;;5093564;28;20172;-71
2023/10/03 03:05:48;;;;;;;14.25;9.15;;;21.10;99.90;;;;;;5093612;28;20221;-71
2023/10/03 03:10:55;;;;;;;16.02;8.30;;;21.00;99.90;;;;;;5093577;28;20191;-71
2023/10/03 03:13:25;;;;;;;13.32;7.60;;;20.90;99.90;;;;;;5093007;28;20226;-73
2023/10/03 03:15:53;;;;;;;12.13;7.78;;;20.80;99.90;;;;;;5093494;28;20167;-71
2023/10/03 03:18:24;;;;;;;12.50;7.43;;;20.70;99.90;;;;;;5093303;28;20176;-71
2023/10/03 03:20:53;;;;;;;11.95;6.97;;;20.70;99.90;;;;;;5093014;28;20182;-72
2023/10/03 03:23:20;;;;;;;13.07;6.72;;;20.60;99.90;;;;;;5093354;28;20271;-72
2023/10/03 03:25:49;;;;;;;17.00;7.10;;;20.60;99.90;;;;;;5093143;28;20216;-72
2023/10/03 03:28:15;;;;;;;10.57;7.40;;;20.60;99.90;;;;;;5092976;28;20178;-72
2023/10/03 03:30:48;;;;;;;10.00;6.05;;;20.50;99.90;;;;;;5093084;28;20199;-70
2023/10/03 03:33:20;;;;;;;11.63;6.60;;;20.40;99.90;;;;;;5093058;28;20203;-71
2023/10/03 03:35:48;;;;;;;9.45;6.15;;;20.30;99.90;;;;;;5092939;28;20172;-72
2023/10/03 03:38:15;;;;;;;10.77;6.57;;;20.40;99.90;;;;;;5095039;28;20164;-71
2023/10/03 03:40:46;;;;;;;14.82;6.70;;;20.30;99.90;;;;;;5097035;28;20176;-72
2023/10/03 03:43:13;;;;;;;8.63;6.28;;;20.30;99.90;;;;;;5096932;28;20635;-72
2023/10/03 03:45:39;;;;;;;11.40;6.15;;;20.30;99.90;;;;;;5096948;28;20180;-72
2023/10/03 03:48:09;;;;;;;12.55;6.07;;;20.20;99.90;;;;;;5097007;28;20176;-71
2023/10/03 03:50:35;;;;;;;10.95;6.20;;;20.20;99.90;;;;;;5096823;28;20191;-71
2023/10/03 03:53:03;;;;;;;21.05;6.55;;;20.10;99.90;;;;;;5095172;28;20255;-72
2023/10/03 03:55:29;;;;;;;7.40;5.43;;;20.10;99.90;;;;;;5096639;28;20254;-71
2023/10/03 03:58:18;;;;;;;10.05;6.50;;;20.00;99.90;;;;;;5096514;28;20245;-72
2023/10/03 04:00:48;;;;;;;12.15;5.80;;;20.10;99.90;;;;;;5096788;28;20221;-71
2023/10/03 04:03:15;;;;;;;10.77;6.20;;;20.10;99.90;;;;;;5096654;28;20168;-73
2023/10/03 04:05:42;;;;;;;12.43;6.07;;;19.90;99.90;;;;;;5096255;28;20254;-72
2023/10/03 04:08:08;;;;;;;9.25;6.18;;;19.90;99.90;;;;;;5096499;28;20180;-72
2023/10/03 04:10:36;;;;;;;8.82;5.95;;;19.80;99.90;;;;;;5096222;28;20202;-72
2023/10/03 04:13:07;;;;;;;8.70;5.88;;;19.70;99.90;;;;;;5096069;28;20199;-71
2023/10/03 04:15:33;;;;;;;10.55;6.63;;;19.70;99.90;;;;;;5096494;28;20160;-72
2023/10/03 04:17:58;;;;;;;13.13;6.60;;;19.60;99.90;;;;;;5096330;28;20168;-71
2023/10/03 04:20:31;;;;;;;8.88;5.78;;;19.70;99.90;;;;;;5096154;28;20228;-72
2023/10/03 04:22:59;;;;;;;11.80;6.10;;;19.70;99.90;;;;;;5095666;28;20215;-73
2023/10/03 04:25:26;;;;;;;14.75;6.78;;;19.60;99.90;;;;;;5096366;28;20204;-72
2023/10/03 04:27:55;;;;;;;9.52;5.82;;;19.60;99.90;;;;;;5095597;28;20283;-71
2023/10/03 04:30:21;;;;;;;10.52;6.00;;;19.60;99.90;;;;;;5095672;28;20176;-71
2023/10/03 04:32:47;;;;;;;11.10;6.78;;;19.60;99.90;;;;;;5095954;28;20598;-72
2023/10/03 04:35:14;;;;;;;10.38;6.00;;;19.60;99.90;;;;;;5095902;28;20171;-72
2023/10/03 04:37:43;;;;;;;10.68;6.25;;;19.70;99.90;;;;;;5095580;28;20203;-73
2023/10/03 04:40:10;;;;;;;11.15;6.70;;;19.70;99.90;;;;;;5095908;28;20175;-71
2023/10/03 04:42:38;;;;;;;11.90;6.13;;;19.60;99.90;;;;;;5095449;28;20180;-72
2023/10/03 04:45:09;;;;;;;10.50;6.65;;;19.50;99.90;;;;;;5095482;28;20168;-72
2023/10/03 04:47:34;;;;;;;9.10;6.30;;;19.50;99.90;;;;;;5095761;28;20191;-72
2023/10/03 04:50:00;;;;;;;14.18;7.47;;;19.60;99.90;;;;;;5094083;28;20620;-71
2023/10/03 04:52:26;;;;;;;12.13;7.20;;;19.50;99.90;;;;;;5095122;28;20215;-71
2023/10/03 04:54:52;;;;;;;13.48;6.63;;;19.60;99.90;;;;;;5095398;28;20175;-73
2023/10/03 04:57:18;;;;;;;14.15;6.95;;;19.60;99.90;;;;;;5095835;28;20176;-72
2023/10/03 04:59:44;;;;;;;13.30;7.18;;;19.60;99.90;;;;;;5095211;28;20172;-71
2023/10/03 05:02:10;;;;;;;10.02;6.78;;;19.50;99.90;;;;;;5095575;28;20164;-72
2023/10/03 05:04:36;;;;;;;15.68;7.10;;;19.50;99.90;;;;;;5094778;28;20168;-71
2023/10/03 05:07:02;;;;;;;10.95;6.80;;;19.50;99.90;;;;;;5095347;28;20214;-72
2023/10/03 05:09:30;;;;;;;9.38;7.07;;;19.40;99.90;;;;;;5094604;28;20247;-73
2023/10/03 05:11:56;;;;;;;12.63;6.90;;;19.40;99.90;;;;;;5093672;28;20219;-71
2023/10/03 05:14:22;;;;;;;14.63;7.20;;;19.40;99.90;;;;;;5095321;28;20277;-72
2023/10/03 05:16:50;;;;;;;9.93;7.38;;;19.30;99.90;;;;;;5095148;28;20175;-71
2023/10/03 05:19:21;;;;;;;14.23;6.88;;;19.30;99.90;;;;;;5094651;28;20182;-71
2023/10/03 05:21:47;;;;;;;15.57;7.50;;;19.30;99.90;;;;;;5094340;28;20228;-71
2023/10/03 05:24:15;;;;;;;13.07;8.05;;;19.20;99.90;;;;;;5094663;28;20213;-72
2023/10/03 05:26:41;;;;;;;13.68;6.97;;;19.20;99.90;;;;;;5092918;28;20172;-73
2023/10/03 05:29:07;;;;;;;12.07;7.55;;;19.20;99.90;;;;;;5094784;28;20639;-72
2023/10/03 05:31:40;;;;;;;13.95;7.00;;;19.30;99.90;;;;;;5093779;28;20204;-72
2023/10/03 05:34:10;;;;;;;11.65;7.47;;;19.30;99.90;;;;;;5093909;28;20468;-74
2023/10/03 05:36:35;;;;;;;8.80;6.80;;;19.20;99.90;;;;;;5093822;28;20235;-73
2023/10/03 05:39:02;;;;;;;14.05;7.75;;;19.10;99.90;;;;;;5093743;28;20181;-72
2023/10/03 05:41:28;;;;;;;12.45;7.82;;;19.10;99.90;;;;;;5094173;28;20163;-73
2023/10/03 05:43:54;;;;;;;10.63;7.18;;;19.20;99.90;;;;;;5094036;28;20172;-73
2023/10/03 05:46:20;;;;;;;11.55;7.35;;;19.20;99.90;;;;;;5093160;28;20183;-72
2023/10/03 05:48:46;;;;;;;11.57;7.05;;;19.20;99.90;;;;;;5094139;28;20160;-72
2023/10/03 05:51:12;;;;;;;14.05;7.85;;;19.20;99.90;;;;;;5093360;28;20242;-72
2023/10/03 05:53:41;;;;;;;16.33;8.05;;;19.10;99.90;;;;;;5093333;28;20192;-72
2023/10/03 05:56:10;;;;;;;10.48;7.45;;;19.10;99.90;;;;;;5094171;28;20251;-72
2023/10/03 05:58:37;;;;;;;13.23;8.00;;;19.10;99.90;;;;;;5093513;28;20170;-72
2023/10/03 06:01:04;;;;;;;12.65;8.23;;;19.20;99.90;;;;;;5093480;28;20180;-73
2023/10/03 06:03:29;;;;;;;16.08;8.60;;;19.30;99.90;;;;;;5093708;28;20172;-74
2023/10/03 06:05:55;;;;;;;10.20;6.60;;;19.20;99.90;;;;;;5093820;28;20195;-71
2023/10/03 06:08:21;;;;;;;13.57;7.70;;;19.20;99.90;;;;;;5091772;28;20179;-72
2023/10/03 06:10:49;;;;;;;17.65;8.85;;;19.20;99.90;;;;;;5093239;28;20612;-72
2023/10/03 06:13:15;;;;;;;17.27;7.93;;;19.20;99.90;;;;;;5093106;28;20554;-73
2023/10/03 06:15:43;;;;;;;12.60;8.00;;;19.20;99.90;;;;;;5092705;28;20335;-71
2023/10/03 06:18:09;;;;;;;13.70;7.68;;;19.20;99.90;;;;;;5093309;28;20274;-73
2023/10/03 06:20:35;;;;;;;15.18;8.13;;;19.20;99.90;;;;;;5093570;28;20194;-71
2023/10/03 06:23:02;;;;;;;10.98;7.70;;;19.30;99.90;;;;;;5092922;28;20224;-73
2023/10/03 06:25:29;;;;;;;14.10;7.85;;;19.30;99.90;;;;;;5092636;28;20164;-72
2023/10/03 06:27:54;;;;;;;12.60;7.80;;;19.30;99.90;;;;;;5092782;28;20615;-72
2023/10/03 06:30:20;;;;;;;13.55;7.78;;;19.30;99.90;;;;;;5092480;28;20176;-71
2023/10/03 06:32:45;;;;;;;13.85;7.97;;;19.30;99.90;;;;;;5093593;28;20183;-72
2023/10/03 06:35:12;;;;;;;13.50;8.20;;;19.30;99.90;;;;;;5092449;28;20168;-71
2023/10/03 06:37:38;;;;;;;16.63;8.25;;;19.30;99.90;;;;;;5092539;28;20191;-73
2023/10/03 06:40:08;;;;;;;18.15;8.65;;;19.30;99.90;;;;;;5093307;28;20168;-72
2023/10/03 06:42:35;;;;;;;10.93;7.55;;;19.40;99.90;;;;;;5092622;28;20175;-70
2023/10/03 06:45:04;;;;;;;13.57;8.50;;;19.30;99.90;;;;;;5074955;28;20525;-68
2023/10/03 06:47:33;;;;;;;16.38;7.82;;;19.30;99.90;;;;;;5079739;28;20204;-68
2023/10/03 06:49:58;;;;;;;16.10;7.95;;;19.20;99.90;;;;;;5085744;28;20659;-69
2023/10/03 06:52:25;;;;;;;12.90;8.05;;;19.20;99.90;;;;;;5088044;28;20291;-69
2023/10/03 06:54:51;;;;;;;12.88;7.57;;;19.30;99.90;;;;;;5071975;28;20194;-70
2023/10/03 06:57:16;;;;;;;14.45;8.10;;;19.30;99.90;;;;;;5071905;28;20169;-69
2023/10/03 06:59:42;;;;;;;10.63;7.97;;;19.30;99.90;;;;;;5074034;28;20234;-68
2023/10/03 07:02:08;;;;;;;15.43;7.80;;;19.40;99.90;;;;;;5112389;28;20170;-70
2023/10/03 07:04:34;;;;;;;10.55;7.38;;;19.30;99.90;;;;;;5112508;28;20167;-68
2023/10/03 07:06:59;;;;;;;11.18;7.18;;;19.30;99.90;;;;;;5087284;28;20183;-70
2023/10/03 07:09:25;;;;;;;9.15;7.13;;;19.30;99.90;;;;;;5112427;28;20167;-70
2023/10/03 07:11:52;;;;;;;10.57;6.75;;;19.40;99.90;;;;;;5097756;28;20762;-71
2023/10/03 07:14:18;;;;;;;11.95;7.35;;;19.30;99.90;;;;;;5082410;28;20220;-70
2023/10/03 07:16:47;;;;;;;11.50;6.30;;;19.50;99.90;;;;;;5076138;28;20172;-72
2023/10/03 07:19:14;;;;;;;9.32;6.30;;;19.40;99.90;;;;;;5080639;28;20176;-70
2023/10/03 07:21:40;;;;;;;9.75;6.13;;;19.50;99.90;;;;;;5071013;28;20289;-71
2023/10/03 07:24:06;;;;;;;9.77;6.18;;;19.40;99.90;;;;;;5080790;28;20191;-70
2023/10/03 07:26:32;;;;;;;11.45;6.22;;;19.50;99.90;;;;;;5084766;28;20529;-71
2023/10/03 07:29:00;;;;;;;9.73;6.20;;;19.60;99.90;;;;;;5089439;28;20583;-71
2023/10/03 07:31:25;;;;;;;8.65;6.00;;;19.50;99.90;;;;;;5088561;28;20260;-70
2023/10/03 07:33:52;;;;;;;7.38;5.40;;;19.50;99.90;;;;;;5091741;28;20168;-70
2023/10/03 07:36:17;;;;;;;10.15;6.13;;;19.50;99.90;;;;;;5085883;28;20182;-69
2023/10/03 07:38:45;;;;;;;8.70;6.05;;;19.60;99.90;;;;;;5070836;28;20516;-70
2023/10/03 07:41:13;;;;;;;10.10;5.90;;;19.70;99.90;;;;;;5075343;28;20180;-70
2023/10/03 07:43:47;;;;;;;11.63;6.20;;;19.50;99.90;;;;;;5072836;28;20230;-70
2023/10/03 07:46:24;;;;;;;9.90;6.25;;;19.40;99.90;;;;;;5075783;28;20177;-69
2023/10/03 07:48:53;;;;;;;13.98;7.28;;;19.40;99.90;;;;;;5072607;28;20184;-71
2023/10/03 07:51:23;;;;;;;9.32;6.85;;;19.20;99.90;;;;;;5070028;28;20200;-72
2023/10/03 07:53:51;;;;;;;13.55;7.18;;;19.00;99.90;;;;;;5079122;28;20164;-71
2023/10/03 07:56:25;;;;;;;14.45;7.70;;;18.90;99.90;;;;;;5080801;28;20177;-71
2023/10/03 07:58:54;;;;;;;13.02;8.20;;;18.70;99.90;;;;;;5079337;28;20508;-71
2023/10/03 08:01:27;;;;;;;11.30;7.30;;;18.70;99.90;;;;;;5085451;28;20259;-72
2023/10/03 08:03:57;;;;;;;16.73;8.70;;;18.60;99.90;;;;;;5088033;28;20697;-72
2023/10/03 08:06:33;;;;;;;15.68;8.40;;;18.70;99.90;;;;;;5082160;28;20180;-71
2023/10/03 08:09:00;;;;;;;12.70;6.97;;;18.70;99.90;;;;;;5091694;28;20171;-71
2023/10/03 08:11:30;;;;;;;12.63;7.55;;;18.70;99.90;;;;;;5076900;28;20223;-72
2023/10/03 08:13:59;;;;;;;12.40;6.97;;;18.60;99.90;;;;;;5070589;28;20196;-71
2023/10/03 08:16:28;;;;;;;14.20;6.88;;;18.70;99.90;;;;;;5070343;28;20187;-71
2023/10/03 08:19:01;;;;;;;10.77;6.80;;;18.80;99.90;;;;;;5070494;28;20200;-74
2023/10/03 08:21:28;;;;;;;11.68;6.60;;;18.90;99.90;;;;;;5074078;28;20229;-75
2023/10/03 08:23:58;;;;;;;10.40;6.05;;;18.90;99.90;;;;;;5085186;28;20228;-75
2023/10/03 08:26:25;;;;;;;12.00;5.50;;;18.80;99.90;;;;;;5091079;28;20196;-75
2023/10/03 08:29:04;;;;;;;9.82;4.35;;;18.70;99.90;;;;;;5074973;28;20172;-74
2023/10/03 08:31:32;;;;;;;10.38;4.68;;;18.60;99.90;;;;;;5077615;28;20274;-74
2023/10/03 08:33:57;;;;;;;10.70;4.00;;;18.40;99.90;;;;;;5084206;28;20187;-74
2023/10/03 08:36:27;;;;;;;5.55;3.03;;;18.30;99.90;;;;;;5075029;28;20184;-75
2023/10/03 08:39:04;;;;;;;10.55;6.38;;;18.30;99.90;;;;;;5074323;28;20212;-75
2023/10/03 08:41:45;;;;;;;4.75;2.65;;;18.30;99.90;;;;;;5080904;28;20216;-75
2023/10/03 08:44:12;;;;;;;5.82;2.80;;;18.30;99.90;;;;;;5089347;28;20180;-75
2023/10/03 08:46:50;;;;;;;8.95;2.83;;;18.30;99.90;;;;;;5080789;28;20183;-74
2023/10/03 08:49:19;;;;;;;13.93;2.58;;;18.30;99.90;;;;;;5078575;28;20183;-73
2023/10/03 08:51:45;;;;;;;10.85;2.42;;;18.40;99.90;;;;;;5078852;28;20208;-76
2023/10/03 08:54:12;;;;;;;3.17;1.67;;;18.40;99.90;;;;;;5076530;28;20188;-75
2023/10/03 08:56:41;;;;;;;3.25;1.63;;;18.50;99.90;;;;;;5079030;28;20181;-74
2023/10/03 08:59:15;;;;;;;7.38;2.20;;;18.40;99.90;;;;;;5082270;28;20169;-74
2023/10/03 09:01:46;;;;;;;6.45;1.92;;;18.50;99.90;;;;;;5079832;28;20340;-75
2023/10/03 09:04:18;;;;;;;7.45;1.88;;;18.50;99.90;;;;;;5074156;28;20169;-76
2023/10/03 09:06:45;;;;;;;6.03;2.15;;;18.40;99.90;;;;;;5075132;28;20663;-75
2023/10/03 09:09:16;;;;;;;5.07;2.05;;;18.50;99.90;;;;;;5074788;28;20179;-77
2023/10/03 09:11:44;;;;;;;7.60;1.90;;;18.40;99.90;;;;;;5072982;28;20208;-75
2023/10/03 09:14:19;;;;;;;7.63;2.05;;;18.40;99.90;;;;;;5090013;28;20191;-75
2023/10/03 09:16:51;;;;;;;6.70;2.10;;;18.50;99.90;;;;;;5076304;28;20249;-74
2023/10/03 09:19:23;;;;;;;3.00;1.73;;;18.80;99.90;;;;;;5086049;28;20172;-74
2023/10/03 09:21:53;;;;;;;8.07;1.88;;;18.90;99.90;;;;;;5094215;28;20242;-76
2023/10/03 09:24:25;;;;;;;4.47;1.48;;;19.10;99.90;;;;;;5079774;28;20179;-75
2023/10/03 09:27:02;;;;;;;3.70;1.48;;;19.30;99.90;;;;;;5085344;28;20662;-75
2023/10/03 09:29:30;;;;;;;3.20;1.50;;;19.50;99.90;;;;;;5073063;28;20187;-75
2023/10/03 09:32:07;;;;;;;5.60;1.70;;;19.70;99.90;;;;;;5090594;28;20203;-74
2023/10/03 09:34:34;;;;;;;8.85;2.17;;;19.50;99.90;;;;;;5088535;28;20179;-75
2023/10/03 09:37:02;;;;;;;5.72;1.65;;;19.40;99.90;;;;;;5074338;28;20172;-75
2023/10/03 09:39:39;;;;;;;4.53;1.67;;;19.20;99.90;;;;;;5077711;28;20595;-75
2023/10/03 09:42:15;;;;;;;4.25;1.65;;;19.10;99.90;;;;;;5074826;28;20172;-74
2023/10/03 09:44:43;;;;;;;2.38;1.70;;;19.00;99.90;;;;;;5073377;28;20271;-76
2023/10/03 09:47:09;;;;;;;9.18;1.80;;;18.90;99.90;;;;;;5072394;28;20171;-75
2023/10/03 09:49:38;;;;;;;6.57;1.80;;;18.90;99.90;;;;;;5073540;28;20706;-76
2023/10/03 09:52:22;;;;;;;13.57;2.15;;;18.90;99.90;;;;;;5073510;28;20239;-75
2023/10/03 09:54:53;;;;;;;4.55;1.63;;;18.80;99.90;;;;;;5074452;28;20289;-75
2023/10/03 09:57:24;;;;;;;2.47;1.00;;;18.50;99.90;;;;;;5083535;28;20179;-76
2023/10/03 09:59:50;;;;;;;1.88;0.90;;;18.50;99.90;;;;;;5087232;28;20559;-77
2023/10/03 10:02:30;;;;;;;1.02;0.75;;;18.30;99.90;;;;;;5079561;28;20164;-76
2023/10/03 10:04:59;;;;;;;1.08;0.82;;;18.30;99.90;;;;;;5082741;28;20182;-76
2023/10/03 10:07:50;;;;;;;2.67;1.20;;;18.20;99.90;;;;;;5088826;28;20259;-75
2023/10/03 10:10:19;;;;;;;1.38;0.85;;;18.20;99.90;;;;;;5072716;28;20204;-75
2023/10/03 10:13:20;;;;;;;1.27;1.02;;;18.40;99.90;;;;;;5072893;28;20295;-75
2023/10/03 10:16:21;;;;;;;1.05;0.82;;;18.60;99.90;;;;;;5072718;28;20639;-75
2023/10/03 10:18:46;;;;;;;0.70;0.70;;;18.80;99.90;;;;;;5018430;28;20198;-74
2023/10/03 10:21:39;;;;;;;2.10;0.90;;;19.10;99.90;;;;;;5050239;28;20196;-74
2023/10/03 10:24:14;;;;;;;3.15;1.17;;;19.50;99.90;;;;;;5041852;28;20188;-74
2023/10/03 10:26:40;;;;;;;2.45;1.23;;;20.10;99.90;;;;;;5050802;28;20175;-75
2023/10/03 10:29:08;;;;;;;1.85;1.15;;;20.20;99.90;;;;;;5024921;28;20658;-76
2023/10/03 10:31:42;;;;;;;2.97;1.58;;;20.40;99.90;;;;;;4995295;28;20630;-77
2023/10/03 10:34:18;;;;;;;3.17;1.10;;;20.90;99.90;;;;;;5010423;28;20593;-75
2023/10/03 10:37:04;;;;;;;0.98;0.90;;;20.70;99.90;;;;;;5011247;28;20174;-77
2023/10/03 10:39:56;;;;;;;3.33;1.30;;;20.20;99.90;;;;;;5010861;28;20174;-74
2023/10/03 10:42:25;;;;;;;4.10;1.10;;;20.30;99.90;;;;;;5010982;28;20186;-75
2023/10/03 10:45:03;;;;;;;2.53;1.30;;;20.10;99.90;;;;;;5010617;28;20174;-73
2023/10/03 10:47:31;;;;;;;3.08;1.38;;;20.40;99.90;;;;;;5026394;28;20186;-72
2023/10/03 10:49:58;;;;;;;1.17;1.13;;;20.90;99.90;;;;;;5029012;28;20178;-73
2023/10/03 10:52:29;;;;;;;1.98;1.40;;;21.20;99.90;;;;;;5039575;28;20239;-72
2023/10/03 10:54:56;;;;;;;1.60;1.50;;;21.10;99.90;;;;;;5057923;28;20192;-74
2023/10/03 10:57:26;;;;;;;2.40;1.60;;;21.30;99.90;;;;;;5071891;28;20245;-75
2023/10/03 10:59:53;;;;;;;3.90;1.58;;;21.40;99.90;;;;;;5072496;28;20169;-72
2023/10/03 11:02:20;;;;;;;4.75;1.52;;;21.50;99.90;;;;;;5072038;28;20180;-74
2023/10/03 11:04:59;;;;;;;1.75;1.40;;;21.80;99.90;;;;;;5077907;28;20659;-73
2023/10/03 11:07:27;;;;;;;3.25;1.63;;;22.00;99.90;;;;;;5088775;28;20210;-73
2023/10/03 11:09:55;;;;;;;4.22;1.70;;;22.20;99.90;;;;;;5072015;28;20214;-75
2023/10/03 11:12:25;;;;;;;4.35;1.75;;;21.90;99.90;;;;;;5080018;28;20234;-75
2023/10/03 11:14:52;;;;;;;5.85;1.67;;;22.20;99.90;;;;;;5080540;28;20186;-72
2023/10/03 11:17:19;;;;;;;4.55;1.73;;;22.40;99.90;;;;;;5076131;28;20208;-71
2023/10/03 11:19:46;;;;;;;2.88;1.58;;;22.00;99.90;;;;;;5071318;28;20176;-73
2023/10/03 11:22:13;;;;;;;4.60;1.40;;;21.40;99.90;;;;;;5078422;28;20230;-72
2023/10/03 11:24:39;;;;;;;4.70;1.70;;;21.40;99.90;;;;;;5091835;28;20531;-73
2023/10/03 11:27:05;;;;;;;2.95;1.40;;;21.10;99.90;;;;;;5079320;28;20203;-73
2023/10/03 11:29:37;;;;;;;4.10;1.60;;;21.00;99.90;;;;;;5072194;28;20241;-72
2023/10/03 11:32:05;;;;;;;2.50;1.35;;;20.80;99.90;;;;;;5071818;28;20192;-71
2023/10/03 11:34:34;;;;;;;2.88;1.50;;;20.60;99.90;;;;;;5070392;28;20168;-71
2023/10/03 11:37:02;;;;;;;2.22;1.60;;;20.30;99.90;;;;;;5071775;28;20627;-73
2023/10/03 11:39:35;;;;;;;2.65;1.50;;;20.10;99.90;;;;;;5071691;28;20168;-73
2023/10/03 11:42:06;;;;;;;5.70;1.52;;;19.90;99.90;;;;;;5070295;28;20195;-73
2023/10/03 11:44:32;;;;;;;3.72;1.77;;;20.00;99.90;;;;;;5072364;28;20231;-73
2023/10/03 11:46:57;;;;;;;2.83;1.60;;;20.40;99.90;;;;;;5071216;28;20238;-73
2023/10/03 11:49:24;;;;;;;3.50;1.60;;;20.90;99.90;;;;;;5104477;28;20199;-71
2023/10/03 11:51:50;;;;;;;7.78;2.15;;;21.00;99.90;;;;;;5070751;28;20583;-71
2023/10/03 11:54:16;;;;;;;2.17;1.60;;;21.00;99.90;;;;;;5074762;28;20272;-71
2023/10/03 11:56:44;;;;;;;4.07;2.10;;;20.50;99.90;;;;;;5075135;28;20180;-71
2023/10/03 11:59:14;;;;;;;2.42;2.00;;;20.30;99.90;;;;;;5083493;28;20226;-70
2023/10/03 12:01:42;;;;;;;3.95;1.90;;;20.10;99.90;;;;;;5083536;28;20185;-70
2023/10/03 12:04:08;;;;;;;2.72;1.90;;;20.10;99.90;;;;;;5092609;28;20180;-72
2023/10/03 12:06:34;;;;;;;3.35;1.67;;;20.30;99.90;;;;;;5094809;28;20172;-70
2023/10/03 12:08:59;;;;;;;7.03;2.30;;;20.30;99.90;;;;;;5108033;28;20179;-72
2023/10/03 12:11:25;;;;;;;3.75;1.80;;;20.40;99.90;;;;;;5095142;28;20211;-71
2023/10/03 12:13:51;;;;;;;2.88;2.03;;;20.70;99.90;;;;;;5085704;28;20609;-72
2023/10/03 12:16:17;;;;;;;4.57;2.17;;;20.60;99.90;;;;;;5095643;28;20179;-71
2023/10/03 12:18:43;;;;;;;8.20;2.30;;;20.50;99.90;;;;;;5089640;28;20670;-71
2023/10/03 12:21:09;;;;;;;2.40;1.83;;;20.10;99.90;;;;;;5079620;28;20176;-71
2023/10/03 12:23:36;;;;;;;7.03;2.45;;;19.80;99.90;;;;;;5088206;28;20270;-71
2023/10/03 12:26:01;;;;;;;4.00;2.47;;;19.60;99.90;;;;;;5074470;28;20250;-71
2023/10/03 12:28:27;;;;;;;2.88;2.10;;;19.40;99.90;;;;;;5083517;28;20172;-71
2023/10/03 12:30:53;;;;;;;11.32;2.10;;;19.30;99.90;;;;;;5086123;28;20295;-71
2023/10/03 12:33:19;;;;;;;5.35;1.92;;;19.10;99.90;;;;;;5095217;28;20266;-71
2023/10/03 12:35:46;;;;;;;2.25;1.83;;;18.80;99.90;;;;;;5085233;28;20254;-73
2023/10/03 12:38:12;;;;;;;5.15;2.08;;;18.70;99.90;;;;;;5087657;28;20179;-70
2023/10/03 12:40:37;;;;;;;3.92;2.00;;;18.50;99.90;;;;;;5079787;28;20268;-71
2023/10/03 12:43:03;;;;;;;4.38;2.22;;;18.30;99.90;;;;;;5080663;28;20262;-71
2023/10/03 12:45:29;;;;;;;3.90;2.00;;;18.50;99.90;;;;;;5077930;28;20574;-69
2023/10/03 12:47:54;;;;;;;5.38;2.20;;;18.50;99.90;;;;;;5082166;28;20611;-69